Time;durP1;ratioP1;P1;durP2;ratioP2;P2;SDS_P1;SDS_P2;PMS_P1;PMS_P2;Temp;Humidity;BMP_temperature;BMP_pressure;BME280_temperature;BME280_humidity;BME280_pressure;Samples;Min_cycle;Max_cycle;Signal;HPM_P1;HPM_P2
2024/03/30 00:01:02;;;;;;;6.00;4.07;;;;;;;;;;10289040;28;20077;-62
2024/03/30 00:06:01;;;;;;;4.38;2.05;;;;;;;;;;10285749;28;20083;-61
2024/03/30 00:10:59;;;;;;;5.57;1.63;;;;;;;;;;10282444;28;20076;-62
2024/03/30 00:15:57;;;;;;;5.30;1.52;;;;;;;;;;10284961;28;20079;-62
2024/03/30 00:20:55;;;;;;;6.00;2.25;;;;;;;;;;10282194;28;20070;-62
2024/03/30 00:25:54;;;;;;;3.97;1.60;;;;;;;;;;10279356;28;20067;-63
2024/03/30 00:30:52;;;;;;;3.72;1.80;;;;;;;;;;10287895;28;20508;-61
2024/03/30 00:35:49;;;;;;;4.18;1.60;;;;;;;;;;10279433;28;20067;-62
2024/03/30 00:40:47;;;;;;;10.18;1.88;;;;;;;;;;10278702;28;20536;-61
2024/03/30 00:45:45;;;;;;;3.58;1.88;;;;;;;;;;10276241;28;20072;-63
2024/03/30 00:50:44;;;;;;;3.88;1.92;;;;;;;;;;10271014;28;20526;-61
2024/03/30 00:55:41;;;;;;;6.45;1.95;;;;;;;;;;10277984;28;20588;-62
2024/03/30 01:00:39;;;;;;;3.92;1.77;;;;;;;;;;10278671;28;20068;-61
2024/03/30 01:05:37;;;;;;;4.13;2.15;;;;;;;;;;10277890;28;20068;-61
2024/03/30 01:10:35;;;;;;;4.82;1.80;;;;;;;;;;10277661;28;20547;-64
2024/03/30 01:15:33;;;;;;;4.32;1.95;;;;;;;;;;10284839;28;20819;-61
2024/03/30 01:20:31;;;;;;;6.10;2.28;;;;;;;;;;10277497;28;20088;-63
2024/03/30 01:25:31;;;;;;;4.90;1.60;;;;;;;;;;10278047;28;20548;-62
2024/03/30 01:30:29;;;;;;;3.38;1.63;;;;;;;;;;10278614;28;20061;-62
2024/03/30 01:35:26;;;;;;;4.32;1.92;;;;;;;;;;10279365;28;20076;-62
2024/03/30 01:40:24;;;;;;;3.83;1.63;;;;;;;;;;10276128;28;20075;-62
2024/03/30 01:45:23;;;;;;;6.63;1.85;;;;;;;;;;10308848;28;20110;-62
2024/03/30 01:50:20;;;;;;;6.30;2.85;;;;;;;;;;10277271;28;20076;-62
2024/03/30 01:55:18;;;;;;;6.80;1.90;;;;;;;;;;10275522;28;20533;-63
2024/03/30 02:00:15;;;;;;;6.75;1.77;;;;;;;;;;10280660;28;20072;-61
2024/03/30 02:05:16;;;;;;;4.57;2.35;;;;;;;;;;10283957;28;20071;-61
2024/03/30 02:10:13;;;;;;;6.03;2.38;;;;;;;;;;10275256;28;20068;-62
2024/03/30 02:15:11;;;;;;;4.63;2.00;;;;;;;;;;10275708;28;20546;-62
2024/03/30 02:20:08;;;;;;;6.05;1.77;;;;;;;;;;10275837;28;20060;-62
2024/03/30 02:25:07;;;;;;;8.07;2.22;;;;;;;;;;10274035;28;20080;-62
2024/03/30 02:30:05;;;;;;;5.78;2.05;;;;;;;;;;10282545;28;20086;-63
2024/03/30 02:35:05;;;;;;;4.78;2.03;;;;;;;;;;10278453;28;20535;-62
2024/03/30 02:40:08;;;;;;;4.80;1.73;;;;;;;;;;10293068;28;20045;-62
2024/03/30 02:45:06;;;;;;;3.90;1.83;;;;;;;;;;10276654;28;20084;-62
2024/03/30 02:50:04;;;;;;;4.57;2.08;;;;;;;;;;10272589;28;20080;-62
2024/03/30 02:55:01;;;;;;;4.63;1.88;;;;;;;;;;10279467;28;20717;-61
2024/03/30 03:00:00;;;;;;;5.88;2.00;;;;;;;;;;10276251;28;20079;-62
2024/03/30 03:04:58;;;;;;;11.35;2.28;;;;;;;;;;10274204;28;20079;-63
2024/03/30 03:09:55;;;;;;;4.95;2.97;;;;;;;;;;10273499;28;20064;-62
2024/03/30 03:14:53;;;;;;;4.97;2.00;;;;;;;;;;10273674;28;20092;-62
2024/03/30 03:19:52;;;;;;;6.22;2.03;;;;;;;;;;10272504;28;20079;-64
2024/03/30 03:24:49;;;;;;;9.60;1.65;;;;;;;;;;10274623;28;20435;-63
2024/03/30 03:29:46;;;;;;;5.78;2.13;;;;;;;;;;10276206;28;20084;-63
2024/03/30 03:34:44;;;;;;;2.90;1.88;;;;;;;;;;10274971;28;20083;-63
2024/03/30 03:39:43;;;;;;;5.68;1.90;;;;;;;;;;10273959;28;20075;-60
2024/03/30 03:44:40;;;;;;;5.80;1.90;;;;;;;;;;10280379;28;20082;-61
2024/03/30 03:49:38;;;;;;;6.43;2.78;;;;;;;;;;10278710;28;20072;-62
2024/03/30 03:54:35;;;;;;;7.10;2.30;;;;;;;;;;10279456;28;20073;-62
2024/03/30 03:59:34;;;;;;;14.38;7.57;;;;;;;;;;10280283;28;20472;-62
2024/03/30 04:04:31;;;;;;;10.60;4.55;;;;;;;;;;10274083;28;20462;-63
2024/03/30 04:09:30;;;;;;;8.77;4.13;;;;;;;;;;10282615;28;20094;-62
2024/03/30 04:14:28;;;;;;;6.25;2.05;;;;;;;;;;10282671;28;20079;-61
2024/03/30 04:19:26;;;;;;;4.82;2.42;;;;;;;;;;10279737;28;20087;-62
2024/03/30 04:24:24;;;;;;;9.93;2.30;;;;;;;;;;10279934;28;20824;-62
2024/03/30 04:29:21;;;;;;;2.38;2.17;;;;;;;;;;10282002;28;20478;-62
2024/03/30 04:34:19;;;;;;;3.25;2.00;;;;;;;;;;10279109;28;20064;-62
2024/03/30 04:39:18;;;;;;;10.63;2.47;;;;;;;;;;10286310;28;20072;-61
2024/03/30 04:44:15;;;;;;;9.38;2.28;;;;;;;;;;10298815;28;20544;-61
2024/03/30 04:49:12;;;;;;;5.85;2.35;;;;;;;;;;10286902;28;20076;-62
2024/03/30 04:54:10;;;;;;;7.00;2.25;;;;;;;;;;10278945;28;20063;-62
2024/03/30 04:59:09;;;;;;;8.15;2.78;;;;;;;;;;10280180;28;20068;-62
2024/03/30 05:04:06;;;;;;;7.07;2.22;;;;;;;;;;10278985;28;20068;-62
2024/03/30 05:09:04;;;;;;;7.50;2.38;;;;;;;;;;10284744;28;20064;-63
2024/03/30 05:14:01;;;;;;;7.13;1.95;;;;;;;;;;10275868;28;20651;-62
2024/03/30 05:19:09;;;;;;;7.05;2.53;;;;;;;;;;10282890;28;20097;-62
2024/03/30 05:24:07;;;;;;;6.07;2.50;;;;;;;;;;10285265;28;20475;-62
2024/03/30 05:29:04;;;;;;;5.50;2.20;;;;;;;;;;10280524;28;20061;-63
2024/03/30 05:34:03;;;;;;;3.42;2.28;;;;;;;;;;10279789;28;20524;-62
2024/03/30 05:39:00;;;;;;;10.02;3.08;;;;;;;;;;10277458;28;20067;-62
2024/03/30 05:43:58;;;;;;;6.18;2.25;;;;;;;;;;10298430;28;20068;-62
2024/03/30 05:48:55;;;;;;;8.80;2.53;;;;;;;;;;10276737;28;20065;-61
2024/03/30 05:53:54;;;;;;;6.32;2.72;;;;;;;;;;10276536;28;20064;-62
2024/03/30 05:58:51;;;;;;;8.98;3.05;;;;;;;;;;10275061;28;20446;-63
2024/03/30 06:03:49;;;;;;;12.57;2.85;;;;;;;;;;10275545;28;20088;-62
2024/03/30 06:08:46;;;;;;;7.15;3.00;;;;;;;;;;10275587;28;20061;-62
2024/03/30 06:13:45;;;;;;;7.63;3.13;;;;;;;;;;10277944;28;20091;-62
2024/03/30 06:18:43;;;;;;;8.02;2.67;;;;;;;;;;10281084;28;20076;-62
2024/03/30 06:23:40;;;;;;;4.88;2.33;;;;;;;;;;10280281;28;20638;-62
2024/03/30 06:28:37;;;;;;;8.23;2.28;;;;;;;;;;10293170;28;20067;-61
2024/03/30 06:33:36;;;;;;;5.47;2.00;;;;;;;;;;10284250;28;20525;-62
2024/03/30 06:38:34;;;;;;;8.45;3.80;;;;;;;;;;10276405;28;20083;-61
2024/03/30 06:43:44;;;;;;;10.18;4.30;;;;;;;;;;10283726;28;20087;-62
2024/03/30 06:48:43;;;;;;;13.40;4.13;;;;;;;;;;10280912;28;20079;-60
2024/03/30 06:53:41;;;;;;;9.65;4.30;;;;;;;;;;10279622;28;20068;-62
2024/03/30 06:58:38;;;;;;;10.40;5.43;;;;;;;;;;10274556;28;20068;-62
2024/03/30 07:03:36;;;;;;;9.88;4.95;;;;;;;;;;10275395;28;20064;-62
2024/03/30 07:08:35;;;;;;;21.27;6.07;;;;;;;;;;10268637;28;20064;-63
2024/03/30 07:13:32;;;;;;;8.25;4.80;;;;;;;;;;10276850;28;20518;-63
2024/03/30 07:18:30;;;;;;;12.07;4.93;;;;;;;;;;10272704;28;20060;-61
2024/03/30 07:23:27;;;;;;;9.15;5.13;;;;;;;;;;10286348;28;20060;-63
2024/03/30 07:28:26;;;;;;;10.90;4.45;;;;;;;;;;10277090;28;20460;-63
2024/03/30 07:33:24;;;;;;;10.32;5.10;;;;;;;;;;10275758;28;20525;-62
2024/03/30 07:38:24;;;;;;;10.90;4.50;;;;;;;;;;10280893;28;20067;-62
2024/03/30 07:43:21;;;;;;;11.88;5.97;;;;;;;;;;10300673;28;20076;-63
2024/03/30 07:48:20;;;;;;;18.35;5.45;;;;;;;;;;10290257;28;20056;-63
2024/03/30 07:53:18;;;;;;;14.77;5.15;;;;;;;;;;10278679;28;20071;-63
2024/03/30 07:58:15;;;;;;;18.05;5.72;;;;;;;;;;10286262;28;20075;-62
2024/03/30 08:03:12;;;;;;;19.77;6.93;;;;;;;;;;10274124;28;20060;-63
2024/03/30 08:08:11;;;;;;;16.58;7.45;;;;;;;;;;10280037;28;20071;-63
2024/03/30 08:13:09;;;;;;;12.50;5.05;;;;;;;;;;10304585;28;20076;-61
2024/03/30 08:18:06;;;;;;;20.13;7.13;;;;;;;;;;10276316;28;20095;-67
2024/03/30 08:23:04;;;;;;;11.90;5.10;;;;;;;;;;10285023;28;20497;-63
2024/03/30 08:28:03;;;;;;;13.43;5.20;;;;;;;;;;10285678;28;20544;-61
2024/03/30 08:33:01;;;;;;;11.50;5.88;;;;;;;;;;10280453;28;20534;-62
2024/03/30 08:37:59;;;;;;;12.75;4.65;;;;;;;;;;10279445;28;20060;-61
2024/03/30 08:42:57;;;;;;;12.13;5.03;;;;;;;;;;10280923;28;20069;-62
2024/03/30 08:47:55;;;;;;;11.23;3.85;;;;;;;;;;10278289;28;20079;-62
2024/03/30 08:52:53;;;;;;;16.70;3.60;;;;;;;;;;10286769;28;20087;-62
2024/03/30 08:57:50;;;;;;;11.07;4.68;;;;;;;;;;10281401;28;20482;-63
2024/03/30 09:02:48;;;;;;;12.65;4.45;;;;;;;;;;10281368;28;20644;-62
2024/03/30 09:07:46;;;;;;;14.77;5.25;;;;;;;;;;10275648;28;20068;-62
2024/03/30 09:12:44;;;;;;;10.48;5.28;;;;;;;;;;10288078;28;20076;-62
2024/03/30 09:17:42;;;;;;;10.30;3.83;;;;;;;;;;10268792;28;20068;-63
2024/03/30 09:22:39;;;;;;;7.50;3.22;;;;;;;;;;10275806;28;20156;-63
2024/03/30 09:27:38;;;;;;;6.93;3.58;;;;;;;;;;10287950;28;20065;-63
2024/03/30 09:32:39;;;;;;;10.93;3.47;;;;;;;;;;10286301;28;20064;-63
2024/03/30 09:37:36;;;;;;;13.02;3.30;;;;;;;;;;10280848;28;20522;-62
2024/03/30 09:42:36;;;;;;;8.98;3.70;;;;;;;;;;10276121;28;20060;-63
2024/03/30 09:47:35;;;;;;;14.10;3.47;;;;;;;;;;10272263;28;20484;-61
2024/03/30 09:52:33;;;;;;;12.02;3.13;;;;;;;;;;10279436;28;20071;-61
2024/03/30 09:57:32;;;;;;;6.78;3.28;;;;;;;;;;10276055;28;20096;-62
2024/03/30 10:02:29;;;;;;;7.30;2.97;;;;;;;;;;10280444;28;20675;-63
2024/03/30 10:07:34;;;;;;;9.45;2.90;;;;;;;;;;10278676;28;20063;-61
2024/03/30 10:12:33;;;;;;;15.07;3.03;;;;;;;;;;10297463;28;20079;-61
2024/03/30 10:17:31;;;;;;;9.75;3.17;;;;;;;;;;10276861;28;20138;-62
2024/03/30 10:22:30;;;;;;;9.95;2.70;;;;;;;;;;10282521;28;20068;-63
2024/03/30 10:27:27;;;;;;;7.70;2.72;;;;;;;;;;10276054;28;20083;-62
2024/03/30 10:32:26;;;;;;;11.55;3.17;;;;;;;;;;10276832;28;20727;-62
2024/03/30 10:37:28;;;;;;;9.07;3.35;;;;;;;;;;10275216;28;20053;-62
2024/03/30 10:42:27;;;;;;;9.82;3.05;;;;;;;;;;10280089;28;20729;-62
2024/03/30 10:47:24;;;;;;;8.23;3.65;;;;;;;;;;10281541;28;20461;-62
2024/03/30 10:52:22;;;;;;;9.95;3.22;;;;;;;;;;10281314;28;20077;-62
2024/03/30 10:57:19;;;;;;;6.82;2.95;;;;;;;;;;10307668;28;20064;-62
2024/03/30 11:02:19;;;;;;;7.88;2.80;;;;;;;;;;10282136;28;20068;-63
2024/03/30 11:07:16;;;;;;;9.80;3.25;;;;;;;;;;10276815;28;20505;-63
2024/03/30 11:12:15;;;;;;;9.25;3.22;;;;;;;;;;10278244;28;20509;-63
2024/03/30 11:17:15;;;;;;;8.13;3.22;;;;;;;;;;10288576;28;20060;-62
2024/03/30 11:22:21;;;;;;;6.65;3.25;;;;;;;;;;10278565;28;20080;-63
2024/03/30 11:27:22;;;;;;;8.25;3.10;;;;;;;;;;10278679;28;20056;-63
2024/03/30 11:32:20;;;;;;;8.25;4.22;;;;;;;;;;10281679;28;20080;-61
2024/03/30 11:37:24;;;;;;;10.75;3.70;;;;;;;;;;10284722;28;20063;-60
2024/03/30 11:42:28;;;;;;;6.90;3.13;;;;;;;;;;10280184;28;20489;-62
2024/03/30 11:47:26;;;;;;;15.30;3.42;;;;;;;;;;10296758;28;20364;-62
2024/03/30 11:52:24;;;;;;;8.50;3.17;;;;;;;;;;10279745;28;20075;-62
2024/03/30 11:57:25;;;;;;;11.82;3.28;;;;;;;;;;10277878;28;20068;-62
2024/03/30 12:02:25;;;;;;;9.93;2.97;;;;;;;;;;10275379;28;20076;-63
2024/03/30 12:07:22;;;;;;;9.82;3.10;;;;;;;;;;10275071;28;20068;-63
2024/03/30 12:12:23;;;;;;;4.38;2.60;;;;;;;;;;10284429;28;20144;-63
2024/03/30 12:17:22;;;;;;;6.50;2.78;;;;;;;;;;10280306;28;20103;-62
2024/03/30 12:22:21;;;;;;;9.20;2.45;;;;;;;;;;10284257;28;20083;-63
2024/03/30 12:27:19;;;;;;;5.97;2.40;;;;;;;;;;10287946;28;20064;-62
2024/03/30 12:32:19;;;;;;;4.10;2.20;;;;;;;;;;10281492;28;20067;-62
2024/03/30 12:37:17;;;;;;;6.85;2.72;;;;;;;;;;10277700;28;20114;-62
2024/03/30 12:42:14;;;;;;;6.78;2.20;;;;;;;;;;10280053;28;20132;-62
2024/03/30 12:47:12;;;;;;;6.68;2.80;;;;;;;;;;10278861;28;20509;-62
2024/03/30 12:52:11;;;;;;;5.28;2.55;;;;;;;;;;10278135;28;20608;-63
2024/03/30 12:57:09;;;;;;;10.65;3.13;;;;;;;;;;10279547;28;20466;-64
2024/03/30 13:02:06;;;;;;;10.40;2.45;;;;;;;;;;10300341;28;20095;-63
2024/03/30 13:07:05;;;;;;;9.23;3.08;;;;;;;;;;10300369;28;20072;-62
2024/03/30 13:12:06;;;;;;;7.00;3.15;;;;;;;;;;10277785;28;20107;-63
2024/03/30 13:17:04;;;;;;;7.18;3.20;;;;;;;;;;10296600;28;20547;-63
2024/03/30 13:22:02;;;;;;;3.92;1.92;;;;;;;;;;10285392;28;20068;-62
2024/03/30 13:26:59;;;;;;;5.15;2.38;;;;;;;;;;10282810;28;20067;-62
2024/03/30 13:31:58;;;;;;;4.80;2.17;;;;;;;;;;10280576;28;20091;-63
2024/03/30 13:36:55;;;;;;;7.50;2.53;;;;;;;;;;10280461;28;20118;-62
2024/03/30 13:41:53;;;;;;;6.13;2.20;;;;;;;;;;10277489;28;20079;-62
2024/03/30 13:46:50;;;;;;;4.55;2.08;;;;;;;;;;10278942;28;20076;-63
2024/03/30 13:51:49;;;;;;;3.08;1.80;;;;;;;;;;10275506;28;20068;-62
2024/03/30 13:56:47;;;;;;;5.63;1.60;;;;;;;;;;10276506;28;20118;-62
2024/03/30 14:01:45;;;;;;;6.32;1.88;;;;;;;;;;10276077;28;20060;-61
2024/03/30 14:06:42;;;;;;;7.35;1.90;;;;;;;;;;10264186;28;20162;-61
2024/03/30 14:11:41;;;;;;;6.50;3.25;;;;;;;;;;10274867;28;20084;-62
2024/03/30 14:16:40;;;;;;;6.93;2.17;;;;;;;;;;10278212;28;20084;-62
2024/03/30 14:21:38;;;;;;;5.97;2.75;;;;;;;;;;10287443;28;20083;-63
2024/03/30 14:26:35;;;;;;;6.70;2.60;;;;;;;;;;10282310;28;20080;-63
2024/03/30 14:31:34;;;;;;;6.10;3.38;;;;;;;;;;10271524;28;20068;-63
2024/03/30 14:36:32;;;;;;;10.10;3.28;;;;;;;;;;10270967;28;20509;-63
2024/03/30 14:41:29;;;;;;;5.57;2.20;;;;;;;;;;10261841;28;20513;-62
2024/03/30 14:46:27;;;;;;;7.72;3.38;;;;;;;;;;10276890;28;20060;-63
2024/03/30 14:51:27;;;;;;;7.35;2.22;;;;;;;;;;10278807;28;20065;-62
2024/03/30 14:56:25;;;;;;;7.68;2.58;;;;;;;;;;10275170;28;20068;-63
2024/03/30 15:01:22;;;;;;;5.72;2.78;;;;;;;;;;10274080;28;20032;-62
2024/03/30 15:06:21;;;;;;;4.45;2.50;;;;;;;;;;10280659;28;20080;-62
2024/03/30 15:11:19;;;;;;;7.68;2.53;;;;;;;;;;10283223;28;20080;-62
2024/03/30 15:16:17;;;;;;;9.48;2.42;;;;;;;;;;10280109;28;20071;-63
2024/03/30 15:21:14;;;;;;;6.88;2.35;;;;;;;;;;10278961;28;20704;-62
2024/03/30 15:26:13;;;;;;;11.05;2.85;;;;;;;;;;10280285;28;20072;-62
2024/03/30 15:36:27;;;;;;;11.98;2.83;;;;;;;;;;10273124;28;20060;-63
2024/03/30 15:41:25;;;;;;;7.25;3.22;;;;;;;;;;10263202;28;20060;-62
2024/03/30 15:46:24;;;;;;;10.57;3.70;;;;;;;;;;10271326;28;20068;-63
2024/03/30 15:51:21;;;;;;;10.40;5.13;;;;;;;;;;10274707;28;20060;-62
2024/03/30 15:56:18;;;;;;;8.15;3.70;;;;;;;;;;10276502;28;20689;-62
2024/03/30 16:01:16;;;;;;;12.98;3.13;;;;;;;;;;10258806;28;20072;-63
2024/03/30 16:06:15;;;;;;;11.90;3.40;;;;;;;;;;10278475;28;20073;-63
2024/03/30 16:11:13;;;;;;;12.00;3.65;;;;;;;;;;10275438;28;20518;-63
2024/03/30 16:16:10;;;;;;;13.20;6.10;;;;;;;;;;10278269;28;20071;-61
2024/03/30 16:21:08;;;;;;;10.88;4.00;;;;;;;;;;10280244;28;20536;-63
2024/03/30 16:26:08;;;;;;;11.23;4.35;;;;;;;;;;10278056;28;20118;-63
2024/03/30 16:31:05;;;;;;;17.23;5.32;;;;;;;;;;10277519;28;20127;-62
2024/03/30 16:36:03;;;;;;;8.43;5.05;;;;;;;;;;10278035;28;20087;-63
2024/03/30 16:41:03;;;;;;;8.00;3.20;;;;;;;;;;10287141;28;20069;-61
2024/03/30 16:46:03;;;;;;;7.30;3.30;;;;;;;;;;10269538;28;20478;-62
2024/03/30 16:51:01;;;;;;;12.25;4.32;;;;;;;;;;10277334;28;20068;-61
2024/03/30 16:56:02;;;;;;;14.00;3.67;;;;;;;;;;10282641;28;20075;-62
2024/03/30 17:01:01;;;;;;;9.93;4.65;;;;;;;;;;10284892;28;20071;-61
2024/03/30 17:06:00;;;;;;;9.20;4.43;;;;;;;;;;10279661;28;20056;-62
2024/03/30 17:10:58;;;;;;;8.48;3.85;;;;;;;;;;10276901;28;20140;-61
2024/03/30 17:15:55;;;;;;;8.52;4.90;;;;;;;;;;10275915;28;20088;-61
2024/03/30 17:21:01;;;;;;;9.48;3.38;;;;;;;;;;10278733;28;20060;-60
2024/03/30 17:25:58;;;;;;;9.95;2.78;;;;;;;;;;10282087;28;20080;-60
2024/03/30 17:30:56;;;;;;;11.25;2.88;;;;;;;;;;10292257;28;20052;-60
2024/03/30 17:36:03;;;;;;;3.65;2.30;;;;;;;;;;10278797;28;20464;-61
2024/03/30 17:41:01;;;;;;;12.60;4.05;;;;;;;;;;10281924;28;20060;-61
2024/03/30 17:45:59;;;;;;;5.93;3.30;;;;;;;;;;10276373;28;20493;-61
2024/03/30 17:51:05;;;;;;;9.98;3.40;;;;;;;;;;10310805;28;20065;-61
2024/03/30 17:56:03;;;;;;;9.27;2.95;;;;;;;;;;10279025;28;20110;-62
2024/03/30 18:01:08;;;;;;;5.45;2.60;;;;;;;;;;10284052;28;20087;-62
2024/03/30 18:06:08;;;;;;;9.30;3.60;;;;;;;;;;10275917;28;20088;-60
2024/03/30 18:11:06;;;;;;;12.38;2.65;;;;;;;;;;10279790;28;20451;-61
2024/03/30 18:16:04;;;;;;;7.43;3.20;;;;;;;;;;10284606;28;20073;-62
2024/03/30 18:21:01;;;;;;;8.00;3.25;;;;;;;;;;10272684;28;20068;-61
2024/03/30 18:26:03;;;;;;;7.30;2.70;;;;;;;;;;10276202;28;20432;-62
2024/03/30 18:31:00;;;;;;;5.72;2.60;;;;;;;;;;10273797;28;20075;-61
2024/03/30 18:35:58;;;;;;;7.93;3.75;;;;;;;;;;10296727;28;20076;-62
2024/03/30 18:40:57;;;;;;;8.02;3.53;;;;;;;;;;10274792;28;20556;-62
2024/03/30 18:46:02;;;;;;;10.05;3.35;;;;;;;;;;10273861;28;20067;-62
2024/03/30 18:51:04;;;;;;;8.25;3.28;;;;;;;;;;10276026;28;20071;-61
2024/03/30 18:56:02;;;;;;;9.55;3.60;;;;;;;;;;10277136;28;20100;-61
2024/03/30 19:01:02;;;;;;;9.27;3.60;;;;;;;;;;10273356;28;20064;-62
2024/03/30 19:06:00;;;;;;;14.00;8.45;;;;;;;;;;10280262;28;20068;-62
2024/03/30 19:10:58;;;;;;;18.08;8.15;;;;;;;;;;10275377;28;20107;-62
2024/03/30 19:15:56;;;;;;;7.45;4.43;;;;;;;;;;10270788;28;20075;-62
2024/03/30 19:20:55;;;;;;;13.65;6.05;;;;;;;;;;10280462;28;20057;-61
2024/03/30 19:25:53;;;;;;;11.10;5.35;;;;;;;;;;10274452;28;20085;-62
2024/03/30 19:30:54;;;;;;;13.40;8.40;;;;;;;;;;10275960;28;20071;-62
2024/03/30 19:35:56;;;;;;;11.63;6.28;;;;;;;;;;10275501;28;20072;-62
2024/03/30 19:40:54;;;;;;;15.77;7.07;;;;;;;;;;10292251;28;20076;-63
2024/03/30 19:45:52;;;;;;;10.00;4.18;;;;;;;;;;10290869;28;20068;-63
2024/03/30 19:50:59;;;;;;;21.17;7.88;;;;;;;;;;10280522;28;20072;-62
2024/03/30 19:55:56;;;;;;;31.65;19.13;;;;;;;;;;10279960;28;20071;-62
2024/03/30 20:01:03;;;;;;;10.77;3.78;;;;;;;;;;10286785;28;20099;-63
2024/03/30 20:06:03;;;;;;;14.98;6.47;;;;;;;;;;10285467;28;20073;-62
2024/03/30 20:11:00;;;;;;;13.60;6.85;;;;;;;;;;10288019;28;20083;-62
2024/03/30 20:15:58;;;;;;;13.25;3.80;;;;;;;;;;10286524;28;20076;-62
2024/03/30 20:20:56;;;;;;;11.27;4.82;;;;;;;;;;10285010;28;20068;-62
2024/03/30 20:25:55;;;;;;;10.20;4.15;;;;;;;;;;10283464;28;20037;-61
2024/03/30 20:30:56;;;;;;;12.73;3.50;;;;;;;;;;10282473;28;20063;-62
2024/03/30 20:35:54;;;;;;;8.05;3.58;;;;;;;;;;10280081;28;20068;-61
2024/03/30 20:40:52;;;;;;;11.48;4.82;;;;;;;;;;10279417;28;20517;-62
2024/03/30 20:45:53;;;;;;;13.00;3.67;;;;;;;;;;10278754;28;20072;-62
2024/03/30 20:50:51;;;;;;;13.43;3.63;;;;;;;;;;10311874;28;20525;-61
2024/03/30 20:55:48;;;;;;;9.32;3.60;;;;;;;;;;10266748;28;20080;-62
2024/03/30 21:00:46;;;;;;;13.02;3.28;;;;;;;;;;10277052;28;20064;-62
2024/03/30 21:05:45;;;;;;;9.50;3.40;;;;;;;;;;10281924;28;20060;-62
2024/03/30 21:10:42;;;;;;;8.90;3.45;;;;;;;;;;10313816;28;20048;-63
2024/03/30 21:15:42;;;;;;;10.25;3.58;;;;;;;;;;10277112;28;20078;-63
2024/03/30 21:20:39;;;;;;;12.73;3.83;;;;;;;;;;10273588;28;20076;-61
2024/03/30 21:25:38;;;;;;;15.32;4.57;;;;;;;;;;10282115;28;20478;-62
2024/03/30 21:30:35;;;;;;;13.75;4.68;;;;;;;;;;10273626;28;20108;-62
2024/03/30 21:35:33;;;;;;;14.57;5.00;;;;;;;;;;10275974;28;20071;-62
2024/03/30 21:40:30;;;;;;;16.17;4.35;;;;;;;;;;10279841;28;20068;-63
2024/03/30 21:45:29;;;;;;;13.68;5.95;;;;;;;;;;10282812;28;20060;-62
2024/03/30 21:50:27;;;;;;;24.55;5.15;;;;;;;;;;10271288;28;20072;-62
2024/03/30 21:55:24;;;;;;;20.67;4.55;;;;;;;;;;10278724;28;20501;-62
2024/03/30 22:00:22;;;;;;;16.17;4.68;;;;;;;;;;10271711;28;20064;-62
2024/03/30 22:05:20;;;;;;;20.05;5.85;;;;;;;;;;10273238;28;20227;-61
2024/03/30 22:10:18;;;;;;;17.50;5.05;;;;;;;;;;10278667;28;20060;-62
2024/03/30 22:15:17;;;;;;;17.83;5.15;;;;;;;;;;10280776;28;20060;-62
2024/03/30 22:20:14;;;;;;;15.23;6.35;;;;;;;;;;10280145;28;20060;-62
2024/03/30 22:25:13;;;;;;;17.58;5.03;;;;;;;;;;10277007;28;20087;-61
2024/03/30 22:30:11;;;;;;;17.45;5.85;;;;;;;;;;10275040;28;20071;-62
2024/03/30 22:35:09;;;;;;;15.77;4.57;;;;;;;;;;10270429;28;20079;-62
2024/03/30 22:40:07;;;;;;;16.30;4.55;;;;;;;;;;10277278;28;20060;-62
2024/03/30 22:45:06;;;;;;;14.85;5.57;;;;;;;;;;10275841;28;20076;-63
2024/03/30 22:50:04;;;;;;;18.13;4.47;;;;;;;;;;10269863;28;20521;-60
2024/03/30 22:55:01;;;;;;;16.10;4.90;;;;;;;;;;10273796;28;20068;-62
2024/03/30 22:59:59;;;;;;;14.43;4.03;;;;;;;;;;10272721;28;20430;-61
2024/03/30 23:04:58;;;;;;;17.35;5.15;;;;;;;;;;10274199;28;20064;-62
2024/03/30 23:09:55;;;;;;;23.42;6.35;;;;;;;;;;10272224;28;20505;-62
2024/03/30 23:14:52;;;;;;;18.80;5.25;;;;;;;;;;10275356;28;20084;-63
2024/03/30 23:19:50;;;;;;;14.68;5.38;;;;;;;;;;10275007;28;20525;-61
2024/03/30 23:24:49;;;;;;;14.88;5.20;;;;;;;;;;10278990;28;20107;-61
2024/03/30 23:29:47;;;;;;;14.00;5.28;;;;;;;;;;10274166;28;20080;-62
2024/03/30 23:34:46;;;;;;;12.00;4.28;;;;;;;;;;10280753;28;20072;-62
2024/03/30 23:39:43;;;;;;;17.23;4.10;;;;;;;;;;10279891;28;20068;-62
2024/03/30 23:44:42;;;;;;;15.98;4.88;;;;;;;;;;10280635;28;20072;-60
2024/03/30 23:49:40;;;;;;;19.90;5.47;;;;;;;;;;10270736;28;20521;-61
2024/03/30 23:54:37;;;;;;;15.98;4.38;;;;;;;;;;10256350;28;20076;-61
2024/03/30 23:59:35;;;;;;;15.85;4.47;;;;;;;;;;10279317;28;20065;-62
